Time;durP1;ratioP1;P1;durP2;ratioP2;P2;SDS_P1;SDS_P2;PMS_P1;PMS_P2;Temp;Humidity;BMP_temperature;BMP_pressure;BME280_temperature;BME280_humidity;BME280_pressure;Samples;Min_cycle;Max_cycle;Signal;HPM_P1;HPM_P2
2020/12/29 00:01:48;;;;;;;7.72;4.82;;;1.10;99.90;;;;;;5034200;28;20176;-77
2020/12/29 00:04:25;;;;;;;8.32;5.60;;;1.10;99.90;;;;;;5034233;28;20202;-76
2020/12/29 00:06:53;;;;;;;9.80;5.60;;;1.10;99.90;;;;;;5034384;28;20180;-77
2020/12/29 00:09:20;;;;;;;6.57;5.20;;;1.10;99.90;;;;;;5034556;28;20190;-77
2020/12/29 00:11:47;;;;;;;6.97;5.25;;;1.20;99.90;;;;;;5034154;28;20693;-78
2020/12/29 00:14:13;;;;;;;7.40;4.25;;;1.20;99.90;;;;;;5034088;28;20222;-77
2020/12/29 00:16:38;;;;;;;6.87;4.30;;;1.20;99.90;;;;;;5034440;28;20178;-77
2020/12/29 00:19:11;;;;;;;7.17;4.60;;;1.30;99.90;;;;;;5034261;28;20521;-77
2020/12/29 00:21:41;;;;;;;7.47;4.40;;;1.40;99.90;;;;;;5034352;28;20182;-77
2020/12/29 00:24:07;;;;;;;7.20;4.97;;;1.40;99.90;;;;;;5033789;28;20199;-77
2020/12/29 00:26:33;;;;;;;9.90;4.72;;;1.40;99.90;;;;;;5034057;28;20178;-78
2020/12/29 00:28:59;;;;;;;5.60;5.00;;;1.40;99.90;;;;;;5033271;28;20538;-77
2020/12/29 00:31:25;;;;;;;8.30;5.03;;;1.50;99.90;;;;;;5033870;28;20183;-77
2020/12/29 00:33:54;;;;;;;8.93;4.67;;;1.40;99.90;;;;;;5033719;28;20233;-77
2020/12/29 00:36:20;;;;;;;14.50;5.25;;;1.50;99.90;;;;;;5033913;28;20415;-77
2020/12/29 00:38:46;;;;;;;7.90;5.10;;;1.50;99.90;;;;;;5032577;28;20558;-77
2020/12/29 00:41:13;;;;;;;6.80;5.20;;;1.50;99.90;;;;;;5033787;28;20406;-78
2020/12/29 00:43:39;;;;;;;11.48;5.97;;;1.50;99.90;;;;;;5033137;28;20208;-77
2020/12/29 00:46:10;;;;;;;9.20;6.10;;;1.50;99.90;;;;;;5033939;28;20259;-77
2020/12/29 00:48:36;;;;;;;9.88;5.40;;;1.50;99.90;;;;;;5033516;28;20659;-77
2020/12/29 00:51:21;;;;;;;12.93;6.95;;;1.50;99.90;;;;;;5033396;28;20200;-77
2020/12/29 00:53:47;;;;;;;19.63;6.45;;;1.50;99.90;;;;;;5033114;28;20170;-78
2020/12/29 00:56:13;;;;;;;13.98;5.75;;;1.40;99.90;;;;;;5033714;28;20524;-78
2020/12/29 00:58:39;;;;;;;8.57;5.07;;;1.40;99.90;;;;;;5032075;28;20289;-77
2020/12/29 01:01:07;;;;;;;9.98;5.72;;;1.50;99.90;;;;;;5032101;28;20235;-77
2020/12/29 01:03:32;;;;;;;12.48;5.53;;;1.40;99.90;;;;;;5032770;28;20172;-77
2020/12/29 01:05:58;;;;;;;9.97;6.10;;;1.40;99.90;;;;;;5033381;28;20591;-77
2020/12/29 01:08:24;;;;;;;10.70;6.73;;;1.40;99.90;;;;;;5033300;28;20174;-77
2020/12/29 01:10:57;;;;;;;12.30;7.73;;;1.40;99.90;;;;;;5032255;28;20649;-77
2020/12/29 01:13:23;;;;;;;13.30;7.32;;;1.40;99.90;;;;;;5033008;28;20666;-77
2020/12/29 01:15:49;;;;;;;13.00;8.10;;;1.40;99.90;;;;;;5033103;28;20219;-77
2020/12/29 01:18:15;;;;;;;11.45;7.38;;;1.40;99.90;;;;;;5033414;28;20802;-77
2020/12/29 01:20:41;;;;;;;10.67;7.23;;;1.50;99.90;;;;;;5033356;28;20178;-77
2020/12/29 01:23:06;;;;;;;10.07;8.10;;;1.50;99.90;;;;;;5032961;28;20174;-77
2020/12/29 01:25:32;;;;;;;10.87;8.47;;;1.60;99.90;;;;;;5033269;28;20210;-77
2020/12/29 01:27:58;;;;;;;12.67;7.33;;;1.50;99.90;;;;;;5033002;28;20605;-78
2020/12/29 01:30:24;;;;;;;16.25;7.90;;;1.60;99.90;;;;;;5033222;28;20264;-77
2020/12/29 01:32:49;;;;;;;15.50;7.40;;;1.70;99.90;;;;;;5032808;28;20176;-77
2020/12/29 01:35:15;;;;;;;10.73;7.50;;;1.80;99.90;;;;;;5033004;28;20627;-77
2020/12/29 01:37:42;;;;;;;11.97;7.00;;;1.90;99.90;;;;;;5033061;28;20179;-77
2020/12/29 01:40:09;;;;;;;10.52;8.13;;;1.90;99.90;;;;;;5032963;28;20661;-77
2020/12/29 01:42:35;;;;;;;9.20;6.50;;;2.00;99.90;;;;;;5036742;28;20260;-77
2020/12/29 01:45:00;;;;;;;8.68;6.63;;;2.00;99.90;;;;;;5035647;28;20704;-77
2020/12/29 01:47:28;;;;;;;7.87;6.20;;;2.10;99.90;;;;;;5036930;28;20178;-77
2020/12/29 01:49:54;;;;;;;7.55;6.57;;;2.20;99.90;;;;;;5036556;28;20294;-78
2020/12/29 01:52:19;;;;;;;7.13;5.80;;;2.30;99.90;;;;;;5036450;28;20685;-77
2020/12/29 01:54:45;;;;;;;9.30;6.27;;;2.30;99.90;;;;;;5036705;28;20205;-77
2020/12/29 01:57:11;;;;;;;11.83;6.57;;;2.40;99.90;;;;;;5036659;28;20181;-77
2020/12/29 01:59:37;;;;;;;9.82;6.22;;;2.40;99.90;;;;;;5036513;28;20957;-76
2020/12/29 02:02:03;;;;;;;12.93;6.90;;;2.30;99.90;;;;;;5036035;28;20180;-76
2020/12/29 02:04:29;;;;;;;9.17;6.60;;;2.30;99.90;;;;;;5036352;28;20884;-77
2020/12/29 02:06:55;;;;;;;9.57;6.55;;;2.40;99.90;;;;;;5036700;28;20412;-77
2020/12/29 02:09:21;;;;;;;10.33;7.40;;;2.30;99.90;;;;;;5036768;28;20216;-77
2020/12/29 02:11:46;;;;;;;13.63;7.67;;;2.30;99.90;;;;;;5036799;28;20174;-77
2020/12/29 02:14:15;;;;;;;7.93;6.20;;;2.40;99.90;;;;;;5036517;28;20186;-77
2020/12/29 02:16:43;;;;;;;7.22;5.80;;;2.40;99.90;;;;;;5036307;28;20577;-77
2020/12/29 02:19:09;;;;;;;8.18;6.75;;;2.40;99.90;;;;;;5036110;28;20657;-77
2020/12/29 02:21:36;;;;;;;8.35;6.50;;;2.40;99.90;;;;;;5036547;28;20682;-77
2020/12/29 02:24:03;;;;;;;8.27;6.32;;;2.40;99.90;;;;;;5035944;28;20209;-77
2020/12/29 02:26:34;;;;;;;7.78;5.93;;;2.30;99.90;;;;;;5018854;28;20188;-76
2020/12/29 02:29:02;;;;;;;7.05;5.85;;;2.10;99.90;;;;;;5036361;28;20554;-76
2020/12/29 02:31:27;;;;;;;12.43;5.90;;;2.30;99.90;;;;;;5036089;28;20264;-77
2020/12/29 02:33:54;;;;;;;8.47;6.37;;;2.30;99.90;;;;;;5035965;28;20256;-77
2020/12/29 02:36:19;;;;;;;10.88;6.00;;;2.30;99.90;;;;;;5036004;28;20200;-76
2020/12/29 02:38:45;;;;;;;10.53;6.93;;;2.40;99.90;;;;;;5035948;28;20204;-77
2020/12/29 02:41:12;;;;;;;12.63;6.77;;;2.40;99.90;;;;;;5036068;28;20547;-76
2020/12/29 02:43:38;;;;;;;8.45;5.65;;;2.40;99.90;;;;;;5034144;28;20650;-76
2020/12/29 02:46:05;;;;;;;9.55;6.20;;;2.40;99.90;;;;;;5035709;28;20201;-76
2020/12/29 02:48:30;;;;;;;8.07;6.07;;;2.60;99.90;;;;;;5035612;28;20172;-76
2020/12/29 02:50:56;;;;;;;15.07;6.90;;;2.60;99.90;;;;;;5035256;28;20250;-77
2020/12/29 02:53:21;;;;;;;11.70;5.57;;;2.60;99.90;;;;;;5035193;28;20645;-76
2020/12/29 02:55:47;;;;;;;9.03;6.63;;;2.60;99.90;;;;;;5035514;28;20181;-76
2020/12/29 02:58:12;;;;;;;7.80;5.87;;;2.60;99.90;;;;;;5035355;28;20182;-77
2020/12/29 03:00:38;;;;;;;11.03;6.30;;;2.60;99.90;;;;;;5035375;28;20185;-76
2020/12/29 03:03:03;;;;;;;11.73;6.50;;;2.50;99.90;;;;;;5035086;28;20660;-77
2020/12/29 03:05:29;;;;;;;11.07;6.80;;;2.60;99.90;;;;;;5035939;28;20665;-76
2020/12/29 03:07:54;;;;;;;11.40;6.30;;;2.60;99.90;;;;;;5035377;28;20208;-77
2020/12/29 03:10:21;;;;;;;9.63;6.57;;;2.20;99.90;;;;;;5035519;28;20204;-77
2020/12/29 03:12:47;;;;;;;6.93;5.50;;;2.20;99.90;;;;;;5035266;28;20202;-76
2020/12/29 03:15:12;;;;;;;11.90;7.57;;;2.30;99.90;;;;;;5035283;28;20217;-76
2020/12/29 03:17:38;;;;;;;13.20;7.50;;;2.30;99.90;;;;;;5035544;28;20181;-77
2020/12/29 03:20:04;;;;;;;10.40;6.97;;;2.20;99.90;;;;;;5035403;28;20194;-77
2020/12/29 03:22:30;;;;;;;11.15;6.90;;;2.20;99.90;;;;;;5034970;28;20177;-77
2020/12/29 03:24:56;;;;;;;8.43;6.33;;;2.20;99.90;;;;;;5035062;28;20211;-76
2020/12/29 03:27:21;;;;;;;8.83;7.03;;;2.30;99.90;;;;;;5035172;28;20177;-77
2020/12/29 03:29:47;;;;;;;8.70;7.43;;;2.20;99.90;;;;;;5034934;28;20698;-77
2020/12/29 03:32:12;;;;;;;9.23;7.27;;;2.20;99.90;;;;;;5034748;28;20181;-76
2020/12/29 03:34:38;;;;;;;10.27;6.93;;;2.30;99.90;;;;;;5035042;28;20450;-76
2020/12/29 03:37:08;;;;;;;11.03;6.10;;;2.20;99.90;;;;;;5035103;28;20185;-76
2020/12/29 03:39:36;;;;;;;9.18;6.20;;;2.20;99.90;;;;;;5034817;28;20198;-76
2020/12/29 03:42:02;;;;;;;8.55;7.13;;;2.00;99.90;;;;;;5034571;28;20224;-76
2020/12/29 03:44:28;;;;;;;11.90;5.93;;;1.90;99.90;;;;;;5034744;28;20198;-76
2020/12/29 03:46:53;;;;;;;9.10;6.70;;;2.00;99.90;;;;;;5034617;28;20206;-75
2020/12/29 03:49:20;;;;;;;12.53;6.23;;;2.00;99.90;;;;;;5034561;28;20295;-76
2020/12/29 03:51:45;;;;;;;10.35;6.05;;;2.10;99.90;;;;;;5034526;28;20253;-77
2020/12/29 03:54:11;;;;;;;10.07;6.70;;;2.00;99.90;;;;;;5034317;28;20187;-76
2020/12/29 03:56:37;;;;;;;9.20;6.47;;;2.00;99.90;;;;;;5034334;28;20253;-76
2020/12/29 03:59:03;;;;;;;12.43;6.30;;;1.90;99.90;;;;;;5034172;28;20431;-76
2020/12/29 04:01:28;;;;;;;8.57;6.33;;;1.80;99.90;;;;;;5034559;28;20180;-76
2020/12/29 04:03:54;;;;;;;9.47;6.43;;;1.90;99.90;;;;;;5033141;28;20220;-76
2020/12/29 04:06:20;;;;;;;11.68;6.63;;;1.80;99.90;;;;;;5034406;28;20185;-77
2020/12/29 04:08:45;;;;;;;11.57;7.13;;;1.80;99.90;;;;;;5034085;28;20254;-77
2020/12/29 04:11:12;;;;;;;8.23;6.93;;;2.00;99.90;;;;;;5034657;28;20672;-76
2020/12/29 04:13:38;;;;;;;11.93;6.57;;;2.10;99.90;;;;;;5034013;28;20633;-76
2020/12/29 04:16:03;;;;;;;10.47;7.30;;;2.10;99.90;;;;;;5034457;28;20179;-76
2020/12/29 04:18:29;;;;;;;12.50;6.40;;;2.20;99.90;;;;;;5034239;28;20415;-77
2020/12/29 04:20:54;;;;;;;9.47;7.13;;;2.40;99.90;;;;;;5033146;28;20571;-77
2020/12/29 04:23:20;;;;;;;8.00;6.10;;;2.40;99.90;;;;;;5033728;28;20179;-76
2020/12/29 04:25:46;;;;;;;8.90;7.37;;;2.50;99.90;;;;;;5033887;28;20463;-76
2020/12/29 04:28:11;;;;;;;12.60;7.13;;;2.40;99.90;;;;;;5034113;28;20637;-76
2020/12/29 04:30:37;;;;;;;10.03;8.57;;;2.40;99.90;;;;;;5034161;28;20232;-77
2020/12/29 04:33:02;;;;;;;8.33;7.20;;;2.40;99.90;;;;;;5033725;28;20173;-76
2020/12/29 04:35:28;;;;;;;12.20;6.73;;;2.30;99.90;;;;;;5033954;28;20182;-77
2020/12/29 04:37:53;;;;;;;7.20;5.87;;;2.30;99.90;;;;;;5033990;28;20187;-76
2020/12/29 04:40:19;;;;;;;9.20;6.77;;;2.30;99.90;;;;;;5033710;28;20262;-76
2020/12/29 04:42:46;;;;;;;8.53;6.53;;;2.30;99.90;;;;;;5033396;28;20255;-76
2020/12/29 04:45:12;;;;;;;9.10;6.47;;;2.20;99.90;;;;;;5033673;28;20213;-77
2020/12/29 04:47:40;;;;;;;9.13;6.57;;;2.30;99.90;;;;;;5033702;28;20208;-76
2020/12/29 04:50:06;;;;;;;11.65;6.88;;;1.90;99.90;;;;;;5033225;28;20267;-76
2020/12/29 04:52:31;;;;;;;8.13;7.10;;;1.90;99.90;;;;;;5033062;28;20180;-77
2020/12/29 04:54:59;;;;;;;7.33;6.47;;;1.80;99.90;;;;;;5033445;28;20407;-76
2020/12/29 04:57:25;;;;;;;8.13;6.13;;;1.70;99.90;;;;;;5033240;28;20417;-76
2020/12/29 04:59:51;;;;;;;7.73;6.57;;;1.90;99.90;;;;;;5033282;28;20274;-77
2020/12/29 05:02:17;;;;;;;6.57;5.63;;;1.70;99.90;;;;;;5031715;28;20434;-77
2020/12/29 05:04:42;;;;;;;10.73;7.00;;;1.60;99.90;;;;;;5033232;28;20202;-78
2020/12/29 05:07:08;;;;;;;7.33;5.97;;;1.50;99.90;;;;;;5033219;28;20176;-77
2020/12/29 05:09:34;;;;;;;8.50;7.70;;;1.50;99.90;;;;;;5033036;28;20659;-76
2020/12/29 05:11:59;;;;;;;8.53;7.63;;;1.40;99.90;;;;;;5032943;28;20679;-77
2020/12/29 05:14:28;;;;;;;7.70;6.60;;;1.30;99.90;;;;;;5033019;28;20432;-77
2020/12/29 05:16:54;;;;;;;8.25;7.00;;;1.20;99.90;;;;;;5033626;28;20175;-77
2020/12/29 05:19:21;;;;;;;9.27;6.45;;;1.10;99.90;;;;;;5033179;28;20561;-77
2020/12/29 05:21:48;;;;;;;10.70;7.70;;;1.10;99.90;;;;;;5033361;28;20167;-77
2020/12/29 05:24:22;;;;;;;11.57;7.53;;;1.00;99.90;;;;;;5033153;28;20227;-77
2020/12/29 05:26:53;;;;;;;8.10;7.10;;;0.90;99.90;;;;;;5033229;28;20556;-77
2020/12/29 05:29:21;;;;;;;14.27;7.40;;;0.90;99.90;;;;;;5031985;28;20646;-77
2020/12/29 05:31:47;;;;;;;8.07;6.70;;;0.80;99.90;;;;;;5033179;28;20170;-77
2020/12/29 05:34:24;;;;;;;8.73;7.50;;;0.70;99.90;;;;;;5033107;28;20284;-78
2020/12/29 05:36:51;;;;;;;9.73;6.25;;;0.70;99.90;;;;;;5033344;28;20180;-77
2020/12/29 05:39:17;;;;;;;9.88;7.32;;;0.60;99.90;;;;;;5032948;28;20197;-78
2020/12/29 05:41:45;;;;;;;10.57;7.10;;;0.50;99.90;;;;;;5033047;28;20174;-77
2020/12/29 05:44:33;;;;;;;14.18;8.05;;;0.50;99.90;;;;;;5032804;28;20198;-77
2020/12/29 05:47:00;;;;;;;13.90;8.00;;;0.40;99.90;;;;;;5033191;28;20245;-77
2020/12/29 05:49:27;;;;;;;8.88;7.70;;;0.40;99.90;;;;;;5032926;28;20210;-77
2020/12/29 05:51:55;;;;;;;11.20;7.35;;;0.40;99.90;;;;;;5032412;28;20651;-77
2020/12/29 05:54:22;;;;;;;9.38;7.30;;;0.50;99.90;;;;;;5032964;28;20170;-77
2020/12/29 05:56:50;;;;;;;10.00;7.05;;;0.50;99.90;;;;;;5031666;28;20178;-77
2020/12/29 05:59:16;;;;;;;9.38;6.38;;;0.30;99.90;;;;;;5032788;28;20202;-77
2020/12/29 06:01:45;;;;;;;9.43;7.00;;;0.30;99.90;;;;;;5032728;28;20224;-77
2020/12/29 06:04:12;;;;;;;7.80;6.97;;;0.20;99.90;;;;;;5032336;28;20559;-77
2020/12/29 06:06:39;;;;;;;12.98;7.30;;;0.20;99.90;;;;;;5033108;28;20162;-77
2020/12/29 06:09:13;;;;;;;14.93;7.40;;;0.20;99.90;;;;;;5032849;28;20194;-78
2020/12/29 06:11:49;;;;;;;10.05;7.75;;;0.30;99.90;;;;;;5031402;28;20181;-78
2020/12/29 06:14:20;;;;;;;12.63;7.65;;;0.30;99.90;;;;;;5032325;28;20556;-78
2020/12/29 06:16:46;;;;;;;11.52;8.27;;;0.30;99.90;;;;;;5032712;28;20518;-77
2020/12/29 06:19:20;;;;;;;9.32;7.65;;;0.30;99.90;;;;;;5032671;28;20720;-78
2020/12/29 06:22:10;;;;;;;9.32;8.30;;;0.30;99.90;;;;;;5031134;28;20677;-78
2020/12/29 06:24:41;;;;;;;10.77;7.97;;;0.30;99.90;;;;;;5031648;28;20214;-77
2020/12/29 06:27:09;;;;;;;13.45;8.57;;;0.40;99.90;;;;;;5034354;28;20575;-78
2020/12/29 06:29:37;;;;;;;14.13;9.68;;;0.40;99.90;;;;;;5036432;28;20269;-78
2020/12/29 06:32:11;;;;;;;11.73;9.45;;;0.50;99.90;;;;;;5034699;28;20691;-77
2020/12/29 06:34:39;;;;;;;12.23;9.50;;;0.50;99.90;;;;;;5036316;28;20174;-77
2020/12/29 06:37:21;;;;;;;12.85;9.02;;;0.50;99.90;;;;;;5036291;28;20166;-78
2020/12/29 06:39:51;;;;;;;10.40;8.20;;;0.50;99.90;;;;;;5036135;28;20198;-78
2020/12/29 06:42:18;;;;;;;13.77;9.05;;;0.50;99.90;;;;;;5035634;28;20194;-78
2020/12/29 06:44:44;;;;;;;16.52;10.23;;;0.40;99.90;;;;;;5036002;28;20249;-78
2020/12/29 06:47:10;;;;;;;11.63;9.27;;;0.40;99.90;;;;;;5036058;28;20178;-78
2020/12/29 06:49:43;;;;;;;9.52;7.88;;;0.40;99.90;;;;;;5035518;28;20764;-78
2020/12/29 06:52:23;;;;;;;10.77;8.20;;;0.30;99.90;;;;;;5035290;28;20671;-78
2020/12/29 06:54:57;;;;;;;10.63;8.75;;;0.40;99.90;;;;;;5035745;28;20201;-78
2020/12/29 06:57:35;;;;;;;10.00;7.80;;;0.40;99.90;;;;;;5034483;28;20570;-78
2020/12/29 07:00:14;;;;;;;12.18;9.40;;;0.30;99.90;;;;;;5035342;28;20252;-78
2020/12/29 07:02:41;;;;;;;10.23;7.95;;;0.30;99.90;;;;;;5033832;28;20186;-77
2020/12/29 07:05:17;;;;;;;11.05;9.73;;;0.30;99.90;;;;;;5035436;28;20213;-77
2020/12/29 07:08:00;;;;;;;14.20;8.93;;;0.30;99.90;;;;;;5034068;28;20235;-77
2020/12/29 07:10:46;;;;;;;13.13;8.82;;;0.40;99.90;;;;;;5033825;28;20206;-77
2020/12/29 07:13:17;;;;;;;18.38;9.40;;;0.30;99.90;;;;;;5034873;28;20244;-77
2020/12/29 07:15:47;;;;;;;16.63;9.32;;;0.20;99.90;;;;;;5035253;28;20174;-77
2020/12/29 07:18:17;;;;;;;12.77;9.15;;;0.30;99.90;;;;;;5035511;28;20249;-78
2020/12/29 07:20:45;;;;;;;12.50;7.78;;;0.20;99.90;;;;;;5034224;28;20178;-77
2020/12/29 07:23:14;;;;;;;13.63;9.27;;;0.20;99.90;;;;;;5034875;28;20186;-78
2020/12/29 07:25:45;;;;;;;14.48;9.40;;;0.10;99.90;;;;;;5035192;28;20213;-77
2020/12/29 07:28:11;;;;;;;10.00;7.65;;;0.10;99.90;;;;;;5033844;28;20266;-77
2020/12/29 07:30:37;;;;;;;13.48;8.50;;;0.10;99.90;;;;;;5035097;28;20193;-78
2020/12/29 07:33:07;;;;;;;25.00;13.20;;;0.10;99.90;;;;;;5033618;28;20170;-77
2020/12/29 07:35:35;;;;;;;20.40;10.30;;;-0.10;99.90;;;;;;5033666;28;20277;-78
2020/12/29 07:38:13;;;;;;;16.20;9.55;;;0.20;99.90;;;;;;5034903;28;20300;-77
2020/12/29 07:40:38;;;;;;;20.83;11.32;;;0.10;99.90;;;;;;5034893;28;20201;-77
2020/12/29 07:43:05;;;;;;;13.60;10.13;;;0.10;99.90;;;;;;5034600;28;20267;-77
2020/12/29 07:45:31;;;;;;;15.00;9.75;;;0.10;99.90;;;;;;5034661;28;20194;-78
2020/12/29 07:48:02;;;;;;;15.57;8.60;;;0.10;99.90;;;;;;5034748;28;20174;-78
2020/12/29 07:50:28;;;;;;;12.65;8.68;;;0.20;99.90;;;;;;5034516;28;20209;-78
2020/12/29 07:53:04;;;;;;;11.88;8.90;;;0.30;99.90;;;;;;5034216;28;20264;-78
2020/12/29 07:55:30;;;;;;;16.58;8.80;;;0.30;99.90;;;;;;5034609;28;20184;-77
2020/12/29 07:57:56;;;;;;;31.50;16.37;;;0.30;99.90;;;;;;5034511;28;20178;-77
2020/12/29 08:00:22;;;;;;;28.05;15.07;;;0.30;99.90;;;;;;5034209;28;20205;-78
2020/12/29 08:02:52;;;;;;;20.48;11.88;;;0.40;99.90;;;;;;5034000;28;20566;-78
2020/12/29 08:05:26;;;;;;;18.75;12.65;;;0.50;99.90;;;;;;5034169;28;20202;-77
2020/12/29 08:08:00;;;;;;;18.83;10.85;;;0.60;99.90;;;;;;5034179;28;20170;-77
2020/12/29 08:10:27;;;;;;;25.25;12.15;;;0.70;99.90;;;;;;5034225;28;20237;-77
2020/12/29 08:12:58;;;;;;;16.60;10.40;;;0.80;99.90;;;;;;5032303;28;20182;-78
2020/12/29 08:15:30;;;;;;;17.70;10.98;;;1.00;99.90;;;;;;5034114;28;20183;-78
2020/12/29 08:18:20;;;;;;;16.27;11.05;;;1.00;99.90;;;;;;5034108;28;20252;-77
2020/12/29 08:20:57;;;;;;;12.60;8.68;;;1.10;99.90;;;;;;5032766;28;20180;-77
2020/12/29 08:23:27;;;;;;;16.45;10.13;;;1.20;99.90;;;;;;5033885;28;20177;-77
2020/12/29 08:26:01;;;;;;;10.93;7.88;;;1.30;99.90;;;;;;5034084;28;20208;-77
2020/12/29 08:28:30;;;;;;;14.10;8.15;;;1.40;99.90;;;;;;5033945;28;20256;-77
2020/12/29 08:31:00;;;;;;;9.10;7.25;;;1.50;99.90;;;;;;5033820;28;20200;-78
2020/12/29 08:33:29;;;;;;;14.30;7.95;;;1.60;99.90;;;;;;5033821;28;20255;-77
2020/12/29 08:35:57;;;;;;;13.00;8.25;;;1.70;99.90;;;;;;5034081;28;20188;-77
2020/12/29 08:39:05;;;;;;;9.38;6.47;;;1.80;99.90;;;;;;5033728;28;20180;-77
2020/12/29 08:41:38;;;;;;;16.05;7.35;;;1.90;99.90;;;;;;5034081;28;20178;-77
2020/12/29 08:44:08;;;;;;;10.90;7.90;;;1.90;99.90;;;;;;5033242;28;20202;-77
2020/12/29 08:46:35;;;;;;;13.73;7.80;;;2.00;99.90;;;;;;5033934;28;20178;-77
2020/12/29 08:49:06;;;;;;;12.85;6.45;;;1.90;99.90;;;;;;5033033;28;20203;-77
2020/12/29 08:51:37;;;;;;;7.47;6.38;;;2.00;99.90;;;;;;5033669;28;20615;-77
2020/12/29 08:54:17;;;;;;;8.27;6.90;;;1.90;99.90;;;;;;5033228;28;20263;-77
2020/12/29 08:56:43;;;;;;;7.93;6.20;;;2.00;99.90;;;;;;5033416;28;20749;-77
2020/12/29 08:59:13;;;;;;;12.32;7.07;;;1.90;99.90;;;;;;5033406;28;20649;-78
2020/12/29 09:01:43;;;;;;;11.80;7.97;;;2.00;99.90;;;;;;5033451;28;20705;-76
2020/12/29 09:04:36;;;;;;;13.23;8.05;;;2.10;99.90;;;;;;5033030;28;20289;-78
2020/12/29 09:07:13;;;;;;;10.30;7.68;;;2.10;99.90;;;;;;5033268;28;20173;-75
2020/12/29 09:09:54;;;;;;;12.90;8.60;;;2.20;99.90;;;;;;5033182;28;20194;-75
2020/12/29 09:12:21;;;;;;;13.73;9.98;;;2.40;99.90;;;;;;5033078;28;20172;-74
2020/12/29 09:14:55;;;;;;;10.77;9.23;;;2.20;99.90;;;;;;5033370;28;20185;-74
2020/12/29 09:17:29;;;;;;;12.98;9.57;;;2.20;99.90;;;;;;5033022;28;20188;-76
2020/12/29 09:20:24;;;;;;;15.77;9.70;;;2.40;99.90;;;;;;5031994;28;20253;-75
2020/12/29 09:22:54;;;;;;;12.57;8.45;;;2.40;99.90;;;;;;5031723;28;20652;-76
2020/12/29 09:25:26;;;;;;;13.95;9.07;;;2.50;99.90;;;;;;5033166;28;20681;-76
2020/12/29 09:28:16;;;;;;;12.25;9.40;;;2.50;99.90;;;;;;5033267;28;20178;-75
2020/12/29 09:30:44;;;;;;;14.45;9.40;;;2.60;99.90;;;;;;5033102;28;20231;-74
2020/12/29 09:33:10;;;;;;;14.30;9.18;;;2.80;99.90;;;;;;5033221;28;20178;-76
2020/12/29 09:35:36;;;;;;;15.43;10.50;;;3.00;99.90;;;;;;5033309;28;20182;-74
2020/12/29 09:38:02;;;;;;;15.73;10.43;;;3.00;99.90;;;;;;5033119;28;20176;-75
2020/12/29 09:40:28;;;;;;;12.90;10.07;;;3.10;99.90;;;;;;5033204;28;20282;-74
2020/12/29 09:42:54;;;;;;;14.45;9.68;;;3.10;99.90;;;;;;5032495;28;20434;-75
2020/12/29 09:45:21;;;;;;;16.03;9.73;;;3.10;99.90;;;;;;5032846;28;20198;-75
2020/12/29 09:47:48;;;;;;;13.30;10.07;;;3.00;99.90;;;;;;5032573;28;20781;-74
2020/12/29 09:50:14;;;;;;;20.95;11.07;;;3.00;99.90;;;;;;5032883;28;20231;-75
2020/12/29 09:52:40;;;;;;;16.88;11.23;;;3.10;99.90;;;;;;5032633;28;20296;-74
2020/12/29 09:55:06;;;;;;;20.27;11.63;;;3.10;99.90;;;;;;5031615;28;20256;-74
2020/12/29 09:57:32;;;;;;;17.67;11.73;;;3.10;99.90;;;;;;5032934;28;20800;-75
2020/12/29 09:59:59;;;;;;;24.67;11.13;;;3.20;99.90;;;;;;5032700;28;20212;-75
2020/12/29 10:02:25;;;;;;;22.95;12.48;;;3.30;99.90;;;;;;5034914;28;20257;-75
2020/12/29 10:04:51;;;;;;;15.80;11.10;;;3.40;99.90;;;;;;5036604;28;20662;-75
2020/12/29 10:07:16;;;;;;;16.17;10.87;;;3.40;99.90;;;;;;5036794;28;20512;-75
2020/12/29 10:09:42;;;;;;;15.20;9.97;;;3.50;99.90;;;;;;5036305;28;20687;-76
2020/12/29 10:12:08;;;;;;;16.03;11.17;;;3.50;99.90;;;;;;5036123;28;20640;-75
2020/12/29 10:14:33;;;;;;;14.17;10.80;;;3.60;99.90;;;;;;5036404;28;20604;-75
2020/12/29 10:16:59;;;;;;;15.00;10.67;;;3.70;99.90;;;;;;5035345;28;20182;-75
2020/12/29 10:19:24;;;;;;;18.47;10.70;;;3.80;99.90;;;;;;5034937;28;20277;-75
2020/12/29 10:21:54;;;;;;;16.57;9.63;;;3.80;99.90;;;;;;5035694;28;20177;-75
2020/12/29 10:24:20;;;;;;;12.02;9.70;;;3.70;99.90;;;;;;5036124;28;20209;-76
2020/12/29 10:26:50;;;;;;;13.00;10.03;;;3.70;99.90;;;;;;5036379;28;20174;-75
2020/12/29 10:29:16;;;;;;;13.45;9.68;;;3.80;99.90;;;;;;5036158;28;20193;-74
2020/12/29 10:31:41;;;;;;;13.48;10.60;;;4.00;99.90;;;;;;5036230;28;20177;-75
2020/12/29 10:34:09;;;;;;;12.50;9.03;;;4.10;99.90;;;;;;5036031;28;20170;-75
2020/12/29 10:36:35;;;;;;;15.82;10.48;;;4.10;99.90;;;;;;5036417;28;20698;-75
2020/12/29 10:39:03;;;;;;;14.60;9.47;;;4.00;99.90;;;;;;5035962;28;20210;-75
2020/12/29 10:41:32;;;;;;;17.35;9.75;;;4.10;99.90;;;;;;5036017;28;20477;-75
2020/12/29 10:43:58;;;;;;;12.82;9.60;;;4.10;99.90;;;;;;5035381;28;20213;-75
2020/12/29 10:46:24;;;;;;;13.70;9.77;;;4.20;99.90;;;;;;5036117;28;20177;-75
2020/12/29 10:48:50;;;;;;;10.40;8.87;;;4.40;99.90;;;;;;5035589;28;20182;-75
2020/12/29 10:51:20;;;;;;;14.45;9.13;;;4.40;99.90;;;;;;5035930;28;20208;-75
2020/12/29 10:53:46;;;;;;;14.60;10.55;;;4.40;99.90;;;;;;5035642;28;20245;-76
2020/12/29 10:56:12;;;;;;;13.80;10.30;;;4.50;99.90;;;;;;5035880;28;20186;-76
2020/12/29 10:58:39;;;;;;;16.17;9.97;;;4.50;99.90;;;;;;5035908;28;20437;-75
2020/12/29 11:01:05;;;;;;;12.20;9.18;;;4.50;99.90;;;;;;5035832;28;20179;-75
2020/12/29 11:03:31;;;;;;;17.80;9.60;;;4.50;99.90;;;;;;5035241;28;20170;-75
2020/12/29 11:05:57;;;;;;;12.70;8.57;;;4.40;99.90;;;;;;5035390;28;20227;-75
2020/12/29 11:08:26;;;;;;;15.23;9.30;;;4.50;99.90;;;;;;5035278;28;20498;-75
2020/12/29 11:10:52;;;;;;;19.80;9.90;;;4.50;99.90;;;;;;5035445;28;20174;-75
2020/12/29 11:13:18;;;;;;;10.80;8.10;;;4.60;99.90;;;;;;5034441;28;20310;-75
2020/12/29 11:15:43;;;;;;;12.90;9.10;;;4.60;99.90;;;;;;5035109;28;20513;-74
2020/12/29 11:18:09;;;;;;;12.87;7.80;;;4.60;99.90;;;;;;5035315;28;20267;-75
2020/12/29 11:20:34;;;;;;;12.30;9.70;;;4.60;99.90;;;;;;5035121;28;20202;-75
2020/12/29 11:23:00;;;;;;;11.13;8.10;;;4.70;99.90;;;;;;5034850;28;20178;-75
2020/12/29 11:25:25;;;;;;;16.43;9.37;;;4.70;99.90;;;;;;5035411;28;20244;-75
2020/12/29 11:30:23;;;;;;;13.32;8.50;;;4.90;99.90;;;;;;5012158;28;20219;-74
2020/12/29 11:32:49;;;;;;;14.37;8.57;;;5.00;99.90;;;;;;5014870;28;20174;-74
2020/12/29 11:35:14;;;;;;;11.00;6.63;;;5.20;99.90;;;;;;5015242;28;20183;-74
2020/12/29 11:37:40;;;;;;;13.63;8.90;;;5.10;99.90;;;;;;5015190;28;20595;-74
2020/12/29 11:40:05;;;;;;;14.23;7.50;;;5.00;99.90;;;;;;5015097;28;20197;-77
2020/12/29 11:42:31;;;;;;;13.63;8.87;;;4.90;99.90;;;;;;5014685;28;20567;-76
2020/12/29 11:44:57;;;;;;;12.67;7.50;;;5.10;99.90;;;;;;5015311;28;20212;-76
2020/12/29 11:47:22;;;;;;;11.90;7.83;;;5.10;99.90;;;;;;5015052;28;20182;-76
2020/12/29 11:49:48;;;;;;;11.40;8.10;;;5.10;99.90;;;;;;5014917;28;20207;-74
2020/12/29 11:52:13;;;;;;;14.30;7.87;;;5.00;99.90;;;;;;5014587;28;20167;-74
2020/12/29 11:54:39;;;;;;;11.10;7.53;;;5.10;99.90;;;;;;5014666;28;20262;-75
2020/12/29 11:57:04;;;;;;;8.33;5.40;;;5.40;99.90;;;;;;5014984;28;20179;-74
2020/12/29 11:59:30;;;;;;;7.83;6.00;;;5.70;99.90;;;;;;5015061;28;20202;-75
2020/12/29 12:01:56;;;;;;;8.60;6.10;;;5.90;99.90;;;;;;5014458;28;20241;-74
2020/12/29 12:04:21;;;;;;;7.77;5.80;;;6.00;99.90;;;;;;5014762;28;20202;-74
2020/12/29 12:06:48;;;;;;;9.77;5.80;;;5.80;99.90;;;;;;5014669;28;20159;-75
2020/12/29 12:09:15;;;;;;;10.45;5.80;;;5.70;99.90;;;;;;5014632;28;20338;-74
2020/12/29 12:11:41;;;;;;;8.77;5.97;;;5.80;99.90;;;;;;5014861;28;20604;-74
2020/12/29 12:14:07;;;;;;;7.30;5.30;;;5.90;99.90;;;;;;5014140;28;20264;-74
2020/12/29 12:16:39;;;;;;;11.53;6.53;;;6.00;99.90;;;;;;5014450;28;20838;-75
2020/12/29 12:19:04;;;;;;;6.05;4.82;;;5.90;99.90;;;;;;5014505;28;20201;-74
2020/12/29 12:21:31;;;;;;;11.07;5.40;;;5.90;99.90;;;;;;5014583;28;20167;-75
2020/12/29 12:23:57;;;;;;;6.63;4.85;;;5.80;99.90;;;;;;5013476;28;20176;-74
2020/12/29 12:26:24;;;;;;;7.57;5.32;;;5.80;99.90;;;;;;5013829;28;20261;-75
2020/12/29 12:28:49;;;;;;;6.95;4.30;;;5.90;99.90;;;;;;5351866;22;20617;-76
2020/12/29 12:31:15;;;;;;;5.70;4.13;;;6.00;99.90;;;;;;5011372;28;20180;-76
2020/12/29 12:33:41;;;;;;;4.88;3.70;;;6.00;99.90;;;;;;5012774;28;20176;-74
2020/12/29 12:36:07;;;;;;;5.85;4.45;;;6.20;99.90;;;;;;5014126;28;20201;-74
2020/12/29 12:38:34;;;;;;;5.83;4.93;;;6.30;99.90;;;;;;5013928;28;20206;-74
2020/12/29 12:41:00;;;;;;;5.95;4.88;;;6.30;99.90;;;;;;5013828;28;20210;-74
2020/12/29 12:43:26;;;;;;;6.45;4.45;;;6.70;99.90;;;;;;5013627;28;20181;-75
2020/12/29 12:45:52;;;;;;;6.00;4.80;;;6.70;99.90;;;;;;5014077;28;20245;-75
2020/12/29 12:48:17;;;;;;;7.17;4.70;;;6.70;99.90;;;;;;5012622;28;20236;-74
2020/12/29 12:50:44;;;;;;;5.33;4.83;;;6.80;99.90;;;;;;5013942;28;20170;-75
2020/12/29 12:53:09;;;;;;;11.95;5.03;;;6.90;99.90;;;;;;5013419;28;20255;-74
2020/12/29 12:55:35;;;;;;;6.50;4.20;;;7.00;99.90;;;;;;5013789;28;20283;-74
2020/12/29 12:58:02;;;;;;;7.38;4.85;;;7.00;99.90;;;;;;5013771;28;20198;-75